createdAt,value
2022-10-21T00:01:18.272Z,21.17
2022-10-21T00:03:45.671Z,21.95
2022-10-21T00:06:13.009Z,23.58
2022-10-21T00:08:40.410Z,20.85
2022-10-21T00:11:08.893Z,23.55
2022-10-21T00:13:38.549Z,24.45
2022-10-21T00:16:07.237Z,23.20
2022-10-21T00:18:36.575Z,23.75
2022-10-21T00:21:05.985Z,23.50
2022-10-21T00:23:33.369Z,24.70
2022-10-21T00:26:00.916Z,24.25
2022-10-21T00:28:28.736Z,27.17
2022-10-21T00:30:58.137Z,26.85
2022-10-21T00:33:26.625Z,26.83
2022-10-21T00:35:56.218Z,28.75
2022-10-21T00:38:23.760Z,28.70
2022-10-21T00:40:51.129Z,28.02
2022-10-21T00:43:18.843Z,28.83
2022-10-21T00:45:46.767Z,27.02
2022-10-21T00:48:17.191Z,29.48
2022-10-21T00:50:50.420Z,30.45
2022-10-21T00:53:19.293Z,29.77
2022-10-21T00:55:52.041Z,28.90
2022-10-21T00:58:21.054Z,30.80
2022-10-21T01:00:48.424Z,30.33
2022-10-21T01:03:15.823Z,32.58
2022-10-21T01:05:43.440Z,30.25
2022-10-21T01:08:10.926Z,27.83
2022-10-21T01:10:39.879Z,28.83
2022-10-21T01:13:12.658Z,29.98
2022-10-21T01:15:42.990Z,27.48
2022-10-21T01:18:13.137Z,29.63
2022-10-21T01:20:54.489Z,29.42
2022-10-21T01:23:40.233Z,29.27
2022-10-21T01:26:26.315Z,29.90
2022-10-21T01:29:00.433Z,29.95
2022-10-21T01:31:32.097Z,29.58
2022-10-21T01:34:01.609Z,29.60
2022-10-21T01:36:31.531Z,30.40
2022-10-21T01:39:04.213Z,29.60
2022-10-21T01:41:36.153Z,28.23
2022-10-21T01:44:05.132Z,27.38
2022-10-21T01:46:35.234Z,26.52
2022-10-21T01:49:12.180Z,27.27
2022-10-21T01:51:40.274Z,26.95
2022-10-21T01:54:10.812Z,24.20
2022-10-21T01:56:39.813Z,24.13
2022-10-21T01:59:07.646Z,23.90
2022-10-21T02:01:38.020Z,21.77
2022-10-21T02:04:06.333Z,21.42
2022-10-21T02:06:33.680Z,19.15
2022-10-21T02:09:01.506Z,19.73
2022-10-21T02:11:29.432Z,20.42
2022-10-21T02:14:00.319Z,18.55
2022-10-21T02:16:29.850Z,17.80
2022-10-21T02:19:00.327Z,17.73
2022-10-21T02:21:29.397Z,18.17
2022-10-21T02:23:59.830Z,18.00
2022-10-21T02:26:28.072Z,18.25
2022-10-21T02:28:57.004Z,17.70
2022-10-21T02:31:33.418Z,16.45
2022-10-21T02:34:06.332Z,17.55
2022-10-21T02:36:38.666Z,16.65
2022-10-21T02:39:08.886Z,16.63
2022-10-21T02:41:38.431Z,13.98
2022-10-21T02:44:06.039Z,15.95
2022-10-21T02:46:37.541Z,15.65
2022-10-21T02:49:06.177Z,16.73
2022-10-21T02:51:33.542Z,17.40
2022-10-21T02:54:00.916Z,17.52
2022-10-21T02:59:00.694Z,16.05
2022-10-21T03:01:28.096Z,14.90
2022-10-21T03:03:55.405Z,16.27
2022-10-21T03:06:24.128Z,16.00
2022-10-21T03:08:51.504Z,17.45
2022-10-21T03:11:18.837Z,17.58
2022-10-21T03:13:46.278Z,16.85
2022-10-21T03:16:13.702Z,16.92
2022-10-21T03:18:41.070Z,18.30
2022-10-21T03:21:08.392Z,17.52
2022-10-21T03:23:37.127Z,16.50
2022-10-21T03:26:04.544Z,17.48
2022-10-21T03:28:31.892Z,16.48
2022-10-21T03:30:59.231Z,17.77
2022-10-21T03:33:26.547Z,16.55
2022-10-21T03:35:53.860Z,16.75
2022-10-21T03:38:21.181Z,17.30
2022-10-21T03:40:50.805Z,17.52
2022-10-21T03:43:18.251Z,18.35
2022-10-21T03:45:45.593Z,19.90
2022-10-21T03:48:12.944Z,19.90
2022-10-21T03:50:40.288Z,20.92
2022-10-21T03:53:18.558Z,20.40
2022-10-21T03:55:56.649Z,20.50
2022-10-21T03:58:25.176Z,20.13
2022-10-21T04:00:52.915Z,21.70
2022-10-21T04:03:20.391Z,22.05
2022-10-21T04:05:47.909Z,22.40
2022-10-21T04:08:15.337Z,23.95
2022-10-21T04:10:42.829Z,23.85
2022-10-21T04:13:11.543Z,23.13
2022-10-21T04:15:38.892Z,23.98
2022-10-21T04:18:06.524Z,22.90
2022-10-21T04:20:33.859Z,23.40
2022-10-21T04:23:01.235Z,23.33
2022-10-21T04:25:28.538Z,22.23
2022-10-21T04:27:55.860Z,24.02
2022-10-21T04:30:24.510Z,23.65
2022-10-21T04:32:51.821Z,23.55
2022-10-21T04:35:19.205Z,23.42
2022-10-21T04:37:46.494Z,22.35
2022-10-21T04:40:13.849Z,23.20
2022-10-21T04:42:41.219Z,21.17
2022-10-21T04:45:09.228Z,20.70
2022-10-21T04:47:38.092Z,20.10
2022-10-21T04:50:06.287Z,21.15
2022-10-21T04:52:33.615Z,19.30
2022-10-21T04:55:00.923Z,18.55
2022-10-21T04:57:28.208Z,18.42
2022-10-21T04:59:55.567Z,17.08
2022-10-21T05:02:25.324Z,17.10
2022-10-21T05:04:54.461Z,17.02
2022-10-21T05:07:21.817Z,16.35
2022-10-21T05:09:49.282Z,15.57
2022-10-21T05:12:16.646Z,16.85
2022-10-21T05:14:44.001Z,16.13
2022-10-21T05:17:11.752Z,13.98
2022-10-21T05:19:39.208Z,15.40
2022-10-21T05:22:07.892Z,13.20
2022-10-21T05:24:35.223Z,13.55
2022-10-21T05:27:02.514Z,12.05
2022-10-21T05:29:29.817Z,13.60
2022-10-21T05:31:57.178Z,13.70
2022-10-21T05:34:24.611Z,12.43
2022-10-21T05:36:51.964Z,12.45
2022-10-21T05:39:20.586Z,12.30
2022-10-21T05:41:48.272Z,11.65
2022-10-21T05:44:15.802Z,11.52
2022-10-21T05:46:43.162Z,10.65
2022-10-21T05:49:10.701Z,10.82
2022-10-21T05:51:38.061Z,10.30
2022-10-21T05:54:05.340Z,10.05
2022-10-21T05:56:34.124Z,11.15
2022-10-21T05:59:01.940Z,9.93
2022-10-21T06:01:29.437Z,10.18
2022-10-21T06:03:56.946Z,9.57
2022-10-21T06:06:24.403Z,9.48
2022-10-21T06:08:51.885Z,9.88
2022-10-21T06:11:20.770Z,9.63
2022-10-21T06:13:49.694Z,9.23
2022-10-21T06:16:17.441Z,10.32
2022-10-21T06:18:44.956Z,8.88
2022-10-21T06:21:12.913Z,10.23
2022-10-21T06:23:40.279Z,9.95
2022-10-21T06:26:09.564Z,8.95
2022-10-21T06:28:38.307Z,9.70
2022-10-21T06:31:07.515Z,9.85
2022-10-21T06:33:35.127Z,9.60
2022-10-21T06:36:02.553Z,9.93
2022-10-21T06:38:32.104Z,8.95
2022-10-21T06:41:01.885Z,9.38
2022-10-21T06:43:29.376Z,10.07
2022-10-21T06:45:59.978Z,10.05
2022-10-21T06:48:28.806Z,8.98
2022-10-21T06:50:59.701Z,9.43
2022-10-21T06:53:27.138Z,9.35
2022-10-21T06:56:01.300Z,8.45
2022-10-21T06:58:28.737Z,9.82
2022-10-21T07:00:56.293Z,9.02
2022-10-21T07:03:24.055Z,8.23
2022-10-21T07:05:58.170Z,8.55
2022-10-21T07:08:39.650Z,9.07
2022-10-21T07:11:14.128Z,8.95
2022-10-21T07:13:41.441Z,8.93
2022-10-21T07:16:09.997Z,9.52
2022-10-21T07:18:40.492Z,7.40
2022-10-21T07:21:14.592Z,8.23
2022-10-21T07:23:42.085Z,9.32
2022-10-21T07:26:09.625Z,9.07
2022-10-21T07:28:37.062Z,9.07
2022-10-21T07:31:04.937Z,8.80
2022-10-21T07:33:32.338Z,9.40
2022-10-21T07:36:06.560Z,9.30
2022-10-21T07:38:35.354Z,10.65
2022-10-21T07:41:02.850Z,10.32
2022-10-21T07:43:30.551Z,10.52
2022-10-21T07:46:00.749Z,10.90
2022-10-21T07:48:30.483Z,12.27
2022-10-21T07:51:03.408Z,11.88
2022-10-21T07:53:30.723Z,10.93
2022-10-21T07:56:07.115Z,10.45
2022-10-21T07:58:34.584Z,10.73
2022-10-21T08:01:02.677Z,10.73
2022-10-21T08:03:30.104Z,10.82
2022-10-21T08:05:57.723Z,10.68
2022-10-21T08:08:28.214Z,11.98
2022-10-21T08:10:56.402Z,12.52
2022-10-21T08:13:25.673Z,12.98
2022-10-21T08:15:54.744Z,14.02
2022-10-21T08:18:22.473Z,14.65
2022-10-21T08:20:50.270Z,14.80
2022-10-21T08:23:18.744Z,15.10
2022-10-21T08:25:49.553Z,14.85
2022-10-21T08:28:17.408Z,16.38
2022-10-21T08:30:46.400Z,14.95
2022-10-21T08:33:14.408Z,14.60
2022-10-21T08:35:41.868Z,14.90
2022-10-21T08:38:09.308Z,15.77
2022-10-21T08:40:40.258Z,15.40
2022-10-21T08:43:08.676Z,16.48
2022-10-21T08:45:39.160Z,16.52
2022-10-21T08:48:10.984Z,17.98
2022-10-21T08:50:40.073Z,17.58
2022-10-21T08:53:13.284Z,16.08
2022-10-21T08:55:41.755Z,16.92
2022-10-21T08:58:16.591Z,17.40
2022-10-21T09:03:17.669Z,16.63
2022-10-21T09:05:57.170Z,18.42
2022-10-21T09:08:27.430Z,16.88
2022-10-21T09:10:59.942Z,18.35
2022-10-21T09:13:35.989Z,18.23
2022-10-21T09:16:07.772Z,16.25
2022-10-21T09:18:41.506Z,14.52
2022-10-21T09:21:14.965Z,9.73
2022-10-21T09:23:48.939Z,8.70
2022-10-21T09:26:26.521Z,7.73
2022-10-21T09:28:57.328Z,7.60
2022-10-21T09:31:24.797Z,5.95
2022-10-21T09:33:56.096Z,10.40
2022-10-21T09:36:25.495Z,12.95
2022-10-21T09:38:55.127Z,14.30
2022-10-21T09:41:25.304Z,14.25
2022-10-21T09:43:52.643Z,15.13
2022-10-21T09:46:20.419Z,14.50
2022-10-21T09:51:40.090Z,13.77
2022-10-21T09:54:10.503Z,14.00
2022-10-21T09:56:40.658Z,14.10
2022-10-21T09:59:09.184Z,15.55
2022-10-21T10:01:37.818Z,14.80
2022-10-21T10:04:11.028Z,12.55
2022-10-21T10:06:40.651Z,4.78
2022-10-21T10:09:09.694Z,5.50
2022-10-21T10:11:48.705Z,4.22
2022-10-21T10:14:23.969Z,4.00
2022-10-21T10:16:51.251Z,3.58
2022-10-21T10:19:19.296Z,3.97
2022-10-21T10:21:51.183Z,3.65
2022-10-21T10:24:19.707Z,3.35
2022-10-21T10:26:47.621Z,3.83
2022-10-21T10:29:23.116Z,4.05
2022-10-21T10:31:51.626Z,3.78
2022-10-21T10:34:21.115Z,3.38
2022-10-21T10:36:50.903Z,3.53
2022-10-21T10:39:21.505Z,3.30
2022-10-21T10:41:50.454Z,3.25
2022-10-21T10:44:25.904Z,2.92
2022-10-21T10:46:55.343Z,2.92
2022-10-21T10:49:23.367Z,3.13
2022-10-21T10:52:05.475Z,3.15
2022-10-21T10:54:33.211Z,3.50
2022-10-21T10:57:01.876Z,3.75
2022-10-21T10:59:33.316Z,3.72
2022-10-21T11:02:03.442Z,3.00
2022-10-21T11:04:33.530Z,3.28
2022-10-21T11:07:05.307Z,3.53
2022-10-21T11:09:34.296Z,4.57
2022-10-21T11:12:04.300Z,4.47
2022-10-21T11:14:31.657Z,4.93
2022-10-21T11:17:05.588Z,5.15
2022-10-21T11:19:36.508Z,5.10
2022-10-21T11:22:11.460Z,3.53
2022-10-21T11:27:07.323Z,3.30
2022-10-21T11:29:40.682Z,4.00
2022-10-21T11:32:12.669Z,4.40
2022-10-21T11:34:47.128Z,4.30
2022-10-21T11:37:20.257Z,3.40
2022-10-21T11:39:54.879Z,3.92
2022-10-21T11:42:24.328Z,4.53
2022-10-21T11:44:59.105Z,4.05
2022-10-21T11:47:29.993Z,4.30
2022-10-21T11:50:01.613Z,4.72
2022-10-21T11:52:36.324Z,4.20
2022-10-21T11:55:10.896Z,4.45
2022-10-21T11:57:43.385Z,4.82
2022-10-21T12:00:13.079Z,4.78
2022-10-21T12:02:44.816Z,4.70
2022-10-21T12:05:20.681Z,4.85
2022-10-21T12:07:54.411Z,5.40
2022-10-21T12:10:30.199Z,5.40
2022-10-21T12:12:59.989Z,4.57
2022-10-21T12:15:30.926Z,5.07
2022-10-21T12:17:58.438Z,5.45
2022-10-21T12:20:27.795Z,4.80
2022-10-21T12:23:00.086Z,4.15
2022-10-21T12:25:30.575Z,4.82
2022-10-21T12:28:00.212Z,5.25
2022-10-21T12:30:33.515Z,4.38
2022-10-21T12:33:08.419Z,4.20
2022-10-21T12:38:20.113Z,5.15
2022-10-21T12:40:48.245Z,5.30
2022-10-21T12:43:22.359Z,4.65
2022-10-21T12:46:02.160Z,4.38
2022-10-21T12:48:32.984Z,4.60
2022-10-21T12:51:01.514Z,4.30
2022-10-21T12:53:34.396Z,4.10
2022-10-21T12:56:02.460Z,4.07
2022-10-21T12:58:32.854Z,3.25
2022-10-21T13:01:00.719Z,3.10
2022-10-21T13:03:46.938Z,2.60
2022-10-21T13:06:14.301Z,2.55
2022-10-21T13:08:53.009Z,2.63
2022-10-21T13:11:22.744Z,3.72
2022-10-21T13:14:10.098Z,2.88
2022-10-21T13:16:39.812Z,3.35
2022-10-21T13:19:27.307Z,3.65
2022-10-21T13:22:02.634Z,3.80
2022-10-21T13:24:32.699Z,3.60
2022-10-21T13:27:01.541Z,4.00
2022-10-21T13:29:34.026Z,4.78
2022-10-21T13:32:31.988Z,3.58
2022-10-21T13:35:23.671Z,3.58
2022-10-21T13:37:55.564Z,2.90
2022-10-21T13:40:24.583Z,2.90
2022-10-21T13:42:56.875Z,3.13
2022-10-21T13:45:26.733Z,2.90
2022-10-21T13:48:01.167Z,2.53
2022-10-21T13:50:30.755Z,2.60
2022-10-21T13:52:59.530Z,2.30
2022-10-21T13:55:27.032Z,2.50
2022-10-21T13:57:55.104Z,1.65
2022-10-21T14:00:23.424Z,1.52
2022-10-21T14:02:51.394Z,1.10
2022-10-21T14:05:32.613Z,1.17
2022-10-21T14:08:01.608Z,0.80
2022-10-21T14:10:29.247Z,0.90
2022-10-21T14:15:29.586Z,0.55
2022-10-21T14:17:59.230Z,0.68
2022-10-21T14:20:28.429Z,1.17
2022-10-21T14:22:55.929Z,0.60
2022-10-21T14:25:24.620Z,0.60
2022-10-21T14:27:51.903Z,0.70
2022-10-21T14:30:26.940Z,0.80
2022-10-21T14:32:54.515Z,0.90
2022-10-21T14:35:26.336Z,0.80
2022-10-21T14:37:55.350Z,0.70
2022-10-21T14:40:26.330Z,0.77
2022-10-21T14:42:55.693Z,0.82
2022-10-21T14:45:25.869Z,1.00
2022-10-21T14:47:57.068Z,0.90
2022-10-21T14:50:25.066Z,1.10
2022-10-21T14:52:53.348Z,0.90
2022-10-21T14:55:28.901Z,1.40
2022-10-21T14:58:01.216Z,0.88
2022-10-21T15:00:30.181Z,1.30
2022-10-21T15:02:58.370Z,4.70
2022-10-21T15:05:31.776Z,2.75
2022-10-21T15:08:17.990Z,1.40
2022-10-21T15:10:45.545Z,2.35
2022-10-21T15:13:17.726Z,1.13
2022-10-21T15:16:03.688Z,1.25
2022-10-21T15:18:32.666Z,1.00
2022-10-21T15:21:01.656Z,1.40
2022-10-21T15:23:30.770Z,1.90
2022-10-21T15:26:00.173Z,1.60
2022-10-21T15:28:31.680Z,0.90
2022-10-21T15:30:59.844Z,2.17
2022-10-21T15:33:27.586Z,1.70
2022-10-21T15:36:01.724Z,1.17
2022-10-21T15:38:29.086Z,1.10
2022-10-21T15:40:56.523Z,1.30
2022-10-21T15:43:23.916Z,1.10
2022-10-21T15:45:52.643Z,8.68
2022-10-21T15:48:19.988Z,4.50
2022-10-21T15:50:47.382Z,1.60
2022-10-21T15:53:14.737Z,1.55
2022-10-21T15:55:42.929Z,1.45
2022-10-21T15:58:11.069Z,1.20
2022-10-21T16:00:40.874Z,1.10
2022-10-21T16:03:09.888Z,1.30
2022-10-21T16:05:38.212Z,1.40
2022-10-21T16:08:05.757Z,1.40
2022-10-21T16:10:35.990Z,1.70
2022-10-21T16:13:03.701Z,2.05
2022-10-21T16:15:31.080Z,1.85
2022-10-21T16:17:58.749Z,1.42
2022-10-21T16:20:29.042Z,2.45
2022-10-21T16:22:59.226Z,1.88
2022-10-21T16:25:29.468Z,1.75
2022-10-21T16:27:57.000Z,2.30
2022-10-21T16:30:25.230Z,2.70
2022-10-21T16:35:56.191Z,1.73
2022-10-21T16:38:23.574Z,2.00
2022-10-21T16:40:50.908Z,1.60
2022-10-21T16:43:18.335Z,1.15
2022-10-21T16:49:19.733Z,1.30
2022-10-21T16:55:20.076Z,1.80
2022-10-21T16:57:47.459Z,1.88
2022-10-21T17:00:15.158Z,1.50
2022-10-21T17:02:43.572Z,1.75
2022-10-21T17:05:13.026Z,1.60
2022-10-21T17:07:40.691Z,1.50
2022-10-21T17:10:11.505Z,1.42
2022-10-21T17:12:40.181Z,1.30
2022-10-21T17:15:07.991Z,2.15
2022-10-21T17:17:36.520Z,1.40
2022-10-21T17:20:04.324Z,1.63
2022-10-21T17:22:34.774Z,1.58
2022-10-21T17:25:02.141Z,1.67
2022-10-21T17:27:29.762Z,1.65
2022-10-21T17:29:58.490Z,2.53
2022-10-21T17:32:25.929Z,1.90
2022-10-21T17:34:53.276Z,2.53
2022-10-21T17:37:21.417Z,2.40
2022-10-21T17:39:48.782Z,6.63
2022-10-21T17:42:16.909Z,10.98
2022-10-21T17:44:44.287Z,5.82
2022-10-21T17:47:14.759Z,9.93
2022-10-21T17:49:42.487Z,4.68
2022-10-21T17:52:10.113Z,6.80
2022-10-21T17:54:37.697Z,6.05
2022-10-21T17:57:05.074Z,4.78
2022-10-21T17:59:33.137Z,3.63
2022-10-21T18:02:00.573Z,4.55
2022-10-21T18:04:31.798Z,3.42
2022-10-21T18:06:59.143Z,4.00
2022-10-21T18:09:26.964Z,4.03
2022-10-21T18:11:54.417Z,2.85
2022-10-21T18:14:21.907Z,2.28
2022-10-21T18:16:49.273Z,2.20
2022-10-21T18:19:17.116Z,1.95
2022-10-21T18:21:46.722Z,1.70
2022-10-21T18:24:16.486Z,2.17
2022-10-21T18:26:45.157Z,1.73
2022-10-21T18:29:12.533Z,1.98
2022-10-21T18:31:39.992Z,2.40
2022-10-21T18:34:12.126Z,2.70
2022-10-21T18:36:44.978Z,2.40
2022-10-21T18:39:16.248Z,1.90
2022-10-21T18:41:45.320Z,2.00
2022-10-21T18:44:13.793Z,2.17
2022-10-21T18:46:52.484Z,2.88
2022-10-21T18:49:22.624Z,2.03
2022-10-21T18:51:57.416Z,2.58
2022-10-21T18:54:26.240Z,2.20
2022-10-21T18:56:55.986Z,2.40
2022-10-21T18:59:23.476Z,2.30
2022-10-21T19:01:53.400Z,2.38
2022-10-21T19:04:28.376Z,2.40
2022-10-21T19:07:00.970Z,3.70
2022-10-21T19:09:29.815Z,2.67
2022-10-21T19:11:59.452Z,1.90
2022-10-21T19:14:32.955Z,2.28
2022-10-21T19:17:07.947Z,1.95
2022-10-21T19:19:39.486Z,2.58
2022-10-21T19:22:08.358Z,2.95
2022-10-21T19:24:37.207Z,3.13
2022-10-21T19:27:06.545Z,2.30
2022-10-21T19:29:37.452Z,2.40
2022-10-21T19:32:30.316Z,2.92
2022-10-21T19:34:58.640Z,3.20
2022-10-21T19:37:25.948Z,2.70
2022-10-21T19:39:54.651Z,2.70
2022-10-21T19:42:21.940Z,3.72
2022-10-21T19:44:49.290Z,2.88
2022-10-21T19:47:16.620Z,2.80
2022-10-21T19:49:43.960Z,3.85
2022-10-21T19:52:11.511Z,3.10
2022-10-21T19:54:38.908Z,2.45
2022-10-21T19:57:07.557Z,3.00
2022-10-21T19:59:34.896Z,2.78
2022-10-21T20:02:02.174Z,2.40
2022-10-21T20:04:32.522Z,2.08
2022-10-21T20:07:02.550Z,2.38
2022-10-21T20:09:31.121Z,2.10
2022-10-21T20:12:00.185Z,2.00
2022-10-21T20:14:28.846Z,1.85
2022-10-21T20:16:56.162Z,1.83
2022-10-21T20:19:23.515Z,2.08
2022-10-21T20:21:50.915Z,2.15
2022-10-21T20:24:18.311Z,2.55
2022-10-21T20:26:48.972Z,4.10
2022-10-21T20:29:16.335Z,3.80
2022-10-21T20:31:44.983Z,3.75
2022-10-21T20:34:12.872Z,3.97
2022-10-21T20:36:40.207Z,4.07
2022-10-21T20:39:07.505Z,3.58
2022-10-21T20:41:37.157Z,3.30
2022-10-21T20:44:08.454Z,3.88
2022-10-21T20:46:36.069Z,3.60
2022-10-21T20:49:05.965Z,3.58
2022-10-21T20:51:33.635Z,4.22
2022-10-21T20:54:01.863Z,3.83
2022-10-21T20:56:30.412Z,3.90
2022-10-21T20:58:58.027Z,4.25
2022-10-21T21:01:26.646Z,4.45
2022-10-21T21:03:54.866Z,4.30
2022-10-21T21:06:23.562Z,4.70
2022-10-21T21:09:08.577Z,4.80
2022-10-21T21:11:38.430Z,4.97
2022-10-21T21:14:05.874Z,4.65
2022-10-21T21:16:33.250Z,4.45
2022-10-21T21:19:02.858Z,4.88
2022-10-21T21:21:32.857Z,5.13
2022-10-21T21:24:00.580Z,5.22
2022-10-21T21:26:28.610Z,4.70
2022-10-21T21:28:56.108Z,4.95
2022-10-21T21:31:24.660Z,4.57
2022-10-21T21:33:52.029Z,4.53
2022-10-21T21:36:20.247Z,4.43
2022-10-21T21:38:50.164Z,5.43
2022-10-21T21:41:17.879Z,4.68
2022-10-21T21:43:45.596Z,5.55
2022-10-21T21:46:12.939Z,4.90
2022-10-21T21:48:42.225Z,5.25
2022-10-21T21:51:11.922Z,5.25
2022-10-21T21:53:39.565Z,6.20
2022-10-21T21:56:09.096Z,6.20
2022-10-21T21:58:36.449Z,6.63
2022-10-21T22:01:08.971Z,7.35
2022-10-21T22:03:36.319Z,8.30
2022-10-21T22:06:03.645Z,9.30
2022-10-21T22:08:31.005Z,9.15
2022-10-21T22:10:58.394Z,9.88
2022-10-21T22:13:27.114Z,9.60
2022-10-21T22:15:54.446Z,10.90
2022-10-21T22:18:21.863Z,11.93
2022-10-21T22:20:49.190Z,10.32
2022-10-21T22:23:16.532Z,10.95
2022-10-21T22:25:43.867Z,11.85
2022-10-21T22:28:11.176Z,11.15
2022-10-21T22:30:39.874Z,11.88
2022-10-21T22:33:07.160Z,13.70
2022-10-21T22:35:34.488Z,14.02
2022-10-21T22:38:01.786Z,14.13
2022-10-21T22:40:29.135Z,15.50
2022-10-21T22:42:56.470Z,15.40
2022-10-21T22:45:23.792Z,16.65
2022-10-21T22:47:52.465Z,16.55
2022-10-21T22:50:19.796Z,17.80
2022-10-21T22:52:47.273Z,19.42
2022-10-21T22:55:14.647Z,30.83
2022-10-21T22:57:41.987Z,32.47
2022-10-21T23:00:09.915Z,32.05
2022-10-21T23:02:37.256Z,29.90
2022-10-21T23:05:06.265Z,21.92
2022-10-21T23:07:33.619Z,18.73
2022-10-21T23:10:01.295Z,18.85
2022-10-21T23:12:28.659Z,18.58
2022-10-21T23:14:55.977Z,23.27
2022-10-21T23:17:23.267Z,23.98
2022-10-21T23:19:50.559Z,20.60
2022-10-21T23:22:19.261Z,20.95
2022-10-21T23:24:46.912Z,21.13
2022-10-21T23:27:14.708Z,16.08
2022-10-21T23:29:42.036Z,11.40
2022-10-21T23:32:09.420Z,11.45
2022-10-21T23:34:36.799Z,8.90
2022-10-21T23:37:04.140Z,6.63
2022-10-21T23:39:32.905Z,7.18
2022-10-21T23:42:00.220Z,5.85
2022-10-21T23:44:29.225Z,6.47
2022-10-21T23:46:56.715Z,7.43
2022-10-21T23:49:24.112Z,9.82
2022-10-21T23:51:51.667Z,11.20
2022-10-21T23:54:18.955Z,9.48
2022-10-21T23:56:47.603Z,9.65
2022-10-21T23:59:14.946Z,9.50
